Time;durP1;ratioP1;P1;durP2;ratioP2;P2;SDS_P1;SDS_P2;PMS_P1;PMS_P2;Temp;Humidity;BMP_temperature;BMP_pressure;BME280_temperature;BME280_humidity;BME280_pressure;Samples;Min_cycle;Max_cycle;Signal;HPM_P1;HPM_P2
2022/06/06 00:01:57;;;;;;;6.20;1.27;;;23.40;99.90;;;;;;5007411;28;20113;-50
2022/06/06 00:04:27;;;;;;;3.63;1.10;;;23.40;99.90;;;;;;4992278;28;20057;-50
2022/06/06 00:06:54;;;;;;;3.50;0.98;;;23.40;99.90;;;;;;4992361;28;20446;-51
2022/06/06 00:09:20;;;;;;;6.30;1.15;;;23.40;99.90;;;;;;4992148;28;20019;-51
2022/06/06 00:11:47;;;;;;;3.90;1.00;;;23.40;99.90;;;;;;4992297;28;20038;-51
2022/06/06 00:14:15;;;;;;;4.00;1.05;;;23.40;99.90;;;;;;4991551;28;20034;-50
2022/06/06 00:16:42;;;;;;;2.58;0.80;;;23.40;99.90;;;;;;4991753;28;20027;-52
2022/06/06 00:19:08;;;;;;;5.03;0.70;;;23.40;99.90;;;;;;4990781;28;20039;-53
2022/06/06 00:21:34;;;;;;;4.23;0.73;;;23.30;99.90;;;;;;4992236;28;20037;-52
2022/06/06 00:24:01;;;;;;;7.30;1.25;;;23.30;99.90;;;;;;4991847;28;20268;-50
2022/06/06 00:26:31;;;;;;;5.90;1.42;;;23.30;99.90;;;;;;4991945;28;20238;-52
2022/06/06 00:28:57;;;;;;;10.95;2.05;;;23.20;99.90;;;;;;4991654;28;20027;-53
2022/06/06 00:36:57;;;;;;;9.07;2.17;;;23.20;99.90;;;;;;4992069;28;20354;-52
2022/06/06 00:39:23;;;;;;;7.30;2.05;;;23.10;99.90;;;;;;4991671;28;20022;-51
2022/06/06 00:41:51;;;;;;;8.23;1.50;;;23.10;99.90;;;;;;4991818;28;20470;-50
2022/06/06 00:44:23;;;;;;;6.32;1.80;;;23.10;99.90;;;;;;4991742;28;20184;-50
2022/06/06 00:47:00;;;;;;;12.25;2.92;;;23.10;99.90;;;;;;4991600;28;20019;-51
2022/06/06 00:49:50;;;;;;;8.10;2.08;;;23.10;99.90;;;;;;4991651;28;20049;-52
2022/06/06 00:52:21;;;;;;;10.07;2.50;;;23.10;99.90;;;;;;4991794;28;20382;-51
2022/06/06 00:54:48;;;;;;;6.93;2.80;;;23.10;99.90;;;;;;4991537;28;20030;-51
2022/06/06 00:57:21;;;;;;;7.25;2.30;;;23.10;99.90;;;;;;4991753;28;20386;-52
2022/06/06 00:59:47;;;;;;;5.50;2.30;;;23.10;99.90;;;;;;5005145;23;20337;-60
2022/06/06 01:02:14;;;;;;;8.98;2.58;;;23.10;99.90;;;;;;5011153;28;20104;-61
2022/06/06 01:04:41;;;;;;;6.47;2.38;;;23.00;99.90;;;;;;5011260;28;20014;-63
2022/06/06 01:07:09;;;;;;;4.65;2.30;;;23.00;99.90;;;;;;5007481;28;20030;-62
2022/06/06 01:09:36;;;;;;;6.65;1.88;;;23.00;99.90;;;;;;5011304;28;20129;-60
2022/06/06 01:12:06;;;;;;;6.95;2.13;;;23.00;99.90;;;;;;4997261;28;20030;-60
2022/06/06 01:14:36;;;;;;;6.13;2.70;;;23.00;99.90;;;;;;5008971;28;20030;-61
2022/06/06 01:17:49;;;;;;;6.97;1.80;;;23.00;99.90;;;;;;5009758;28;20030;-62
2022/06/06 01:20:38;;;;;;;7.53;2.47;;;23.00;99.90;;;;;;4950269;28;20087;-60
2022/06/06 01:23:13;;;;;;;8.75;2.47;;;23.00;99.90;;;;;;4950444;29;20593;-60
2022/06/06 01:25:52;;;;;;;6.57;2.35;;;23.00;99.90;;;;;;4996594;28;20048;-59
2022/06/06 01:28:53;;;;;;;10.15;2.50;;;23.00;99.90;;;;;;4981536;28;20496;-59
2022/06/06 01:31:41;;;;;;;10.07;2.80;;;23.00;99.90;;;;;;5000418;28;20026;-58
2022/06/06 01:34:09;;;;;;;5.30;1.70;;;23.00;99.90;;;;;;5014662;28;20025;-58
2022/06/06 01:36:36;;;;;;;6.70;2.10;;;23.00;99.90;;;;;;5014668;28;20018;-61
2022/06/06 01:39:07;;;;;;;4.25;1.85;;;23.10;99.90;;;;;;5014555;28;20038;-61
2022/06/06 01:42:06;;;;;;;4.95;1.88;;;23.10;99.90;;;;;;5014422;28;20033;-58
2022/06/06 01:44:37;;;;;;;11.48;1.98;;;23.10;99.90;;;;;;5014419;28;20025;-58
2022/06/06 01:47:07;;;;;;;7.15;2.05;;;23.10;99.90;;;;;;5014548;28;20092;-58
2022/06/06 01:49:34;;;;;;;3.88;1.55;;;23.10;99.90;;;;;;5014403;28;20296;-58
2022/06/06 01:52:07;;;;;;;5.15;1.67;;;23.10;99.90;;;;;;5014302;28;20103;-59
2022/06/06 01:54:33;;;;;;;3.30;1.20;;;23.10;99.90;;;;;;5014362;28;20050;-59
2022/06/06 01:57:02;;;;;;;3.15;1.75;;;23.10;99.90;;;;;;5014286;28;20026;-59
2022/06/06 01:59:28;;;;;;;3.92;1.33;;;23.20;99.90;;;;;;5014733;28;20044;-60
2022/06/06 02:01:54;;;;;;;3.75;1.13;;;23.20;99.90;;;;;;5014281;28;20383;-60
2022/06/06 02:04:20;;;;;;;4.32;1.33;;;23.20;99.90;;;;;;5014027;28;20036;-60
2022/06/06 02:06:46;;;;;;;5.70;1.33;;;23.10;99.90;;;;;;5014270;28;20022;-59
2022/06/06 02:09:12;;;;;;;4.75;1.25;;;23.20;99.90;;;;;;5014082;28;20387;-60
2022/06/06 02:11:40;;;;;;;3.42;1.13;;;23.20;99.90;;;;;;5014066;28;20073;-60
2022/06/06 02:14:07;;;;;;;4.47;1.40;;;23.20;99.90;;;;;;5014180;28;20072;-59
2022/06/06 02:16:33;;;;;;;3.65;0.93;;;23.20;99.90;;;;;;5009379;28;20019;-60
2022/06/06 02:18:59;;;;;;;6.82;1.73;;;23.30;99.90;;;;;;5004462;28;20048;-60
2022/06/06 02:21:25;;;;;;;3.17;0.98;;;23.30;99.90;;;;;;5009525;28;20477;-59
2022/06/06 02:23:51;;;;;;;2.75;1.15;;;23.30;99.90;;;;;;5013845;28;20026;-59
2022/06/06 02:26:16;;;;;;;3.90;1.35;;;23.40;99.90;;;;;;5012492;28;20180;-59
2022/06/06 02:28:42;;;;;;;4.07;0.80;;;23.40;99.90;;;;;;4996409;28;20022;-59
2022/06/06 02:31:09;;;;;;;4.43;1.10;;;23.40;99.90;;;;;;5013673;28;20014;-61
2022/06/06 02:33:36;;;;;;;4.60;2.87;;;23.40;99.90;;;;;;5013625;28;20489;-60
2022/06/06 02:36:03;;;;;;;5.28;2.75;;;23.50;99.90;;;;;;5013646;28;20287;-60
2022/06/06 02:38:30;;;;;;;8.18;2.30;;;23.50;99.90;;;;;;5012478;28;20079;-60
2022/06/06 02:41:07;;;;;;;2.28;0.88;;;23.50;99.90;;;;;;5012166;28;20129;-60
2022/06/06 02:43:35;;;;;;;5.25;2.15;;;23.50;99.90;;;;;;5013492;28;20065;-60
2022/06/06 02:46:03;;;;;;;2.63;1.10;;;23.60;99.90;;;;;;5013327;28;20075;-59
2022/06/06 02:48:30;;;;;;;2.42;0.98;;;23.60;99.90;;;;;;5013457;28;20033;-61
2022/06/06 02:50:56;;;;;;;5.30;1.48;;;23.60;99.90;;;;;;5013358;28;20029;-60
2022/06/06 02:53:22;;;;;;;3.63;1.10;;;23.60;99.90;;;;;;5013107;28;20030;-59
2022/06/06 02:55:51;;;;;;;2.35;0.88;;;23.60;99.90;;;;;;5013332;28;20565;-61
2022/06/06 02:58:17;;;;;;;2.70;0.90;;;23.60;99.90;;;;;;5013287;28;20029;-61
2022/06/06 03:00:43;;;;;;;2.15;0.88;;;23.60;99.90;;;;;;5013573;28;20049;-61
2022/06/06 03:03:10;;;;;;;2.50;0.90;;;23.50;99.90;;;;;;5013011;28;20077;-61
2022/06/06 03:06:11;;;;;;;2.90;1.20;;;23.50;99.90;;;;;;5012985;28;20026;-61
2022/06/06 03:09:02;;;;;;;2.90;1.02;;;23.60;99.90;;;;;;5012968;28;20038;-61
2022/06/06 03:11:49;;;;;;;3.03;1.15;;;23.60;99.90;;;;;;5011794;28;20095;-61
2022/06/06 03:14:53;;;;;;;2.45;0.77;;;23.80;99.90;;;;;;5013207;28;20494;-61
2022/06/06 03:21:06;;;;;;;3.25;0.68;;;23.80;99.90;;;;;;5013012;28;20052;-61
2022/06/06 03:24:01;;;;;;;3.58;1.00;;;23.70;99.90;;;;;;5012617;28;20014;-60
2022/06/06 03:26:59;;;;;;;5.22;0.90;;;23.70;99.90;;;;;;5012605;28;20022;-61
2022/06/06 03:29:31;;;;;;;5.05;0.85;;;23.70;99.90;;;;;;4981355;28;20500;-61
2022/06/06 03:32:19;;;;;;;3.28;0.68;;;23.70;99.90;;;;;;5012449;28;20109;-61
2022/06/06 03:34:58;;;;;;;1.80;1.10;;;23.70;99.90;;;;;;5010703;28;20038;-60
2022/06/06 03:37:40;;;;;;;1.65;0.93;;;23.70;99.90;;;;;;5012062;28;20022;-59
2022/06/06 03:40:18;;;;;;;4.68;1.13;;;23.70;99.90;;;;;;5012278;28;20454;-59
2022/06/06 03:42:47;;;;;;;5.82;1.25;;;23.70;99.90;;;;;;5007884;28;20085;-59
2022/06/06 03:45:25;;;;;;;2.65;0.82;;;23.80;99.90;;;;;;5012232;28;20022;-59
2022/06/06 03:48:18;;;;;;;3.88;1.10;;;23.90;99.90;;;;;;5012668;28;20084;-58
2022/06/06 03:51:01;;;;;;;3.78;1.05;;;23.80;99.90;;;;;;5012209;28;20037;-59
2022/06/06 03:53:46;;;;;;;2.20;0.88;;;23.90;99.90;;;;;;4992174;28;20614;-59
2022/06/06 03:56:32;;;;;;;2.42;0.90;;;24.00;99.90;;;;;;4991826;28;20457;-58
2022/06/06 03:58:59;;;;;;;2.80;1.02;;;24.00;99.90;;;;;;4991790;28;20065;-58
2022/06/06 04:01:26;;;;;;;3.63;0.98;;;24.10;99.90;;;;;;4992754;28;20049;-59
2022/06/06 04:03:53;;;;;;;2.85;1.13;;;24.10;99.90;;;;;;4991943;28;20031;-59
2022/06/06 04:06:20;;;;;;;1.77;0.77;;;24.10;99.90;;;;;;4991954;28;20328;-59
2022/06/06 04:08:46;;;;;;;1.83;1.02;;;24.10;99.90;;;;;;4995848;28;20030;-58
2022/06/06 04:11:27;;;;;;;3.20;1.00;;;24.20;99.90;;;;;;5000661;28;20025;-60
2022/06/06 04:14:20;;;;;;;5.13;1.13;;;24.10;99.90;;;;;;5011022;28;20454;-58
2022/06/06 04:17:03;;;;;;;2.15;0.82;;;24.10;99.90;;;;;;5011747;28;20068;-59
2022/06/06 04:19:44;;;;;;;1.58;0.82;;;24.10;99.90;;;;;;5011527;28;20373;-59
2022/06/06 04:22:53;;;;;;;2.35;1.13;;;24.10;99.90;;;;;;5010369;28;20033;-59
2022/06/06 04:25:59;;;;;;;1.48;1.00;;;24.10;99.90;;;;;;4972853;28;20061;-59
2022/06/06 04:28:46;;;;;;;4.03;1.15;;;24.20;99.90;;;;;;4998125;28;20014;-60
2022/06/06 04:31:34;;;;;;;3.50;1.00;;;24.20;99.90;;;;;;5011664;28;20061;-60
2022/06/06 04:34:18;;;;;;;2.05;0.88;;;24.20;99.90;;;;;;5011434;28;20107;-60
2022/06/06 04:36:49;;;;;;;2.25;0.80;;;24.30;99.90;;;;;;5011261;28;20030;-60
2022/06/06 04:39:33;;;;;;;1.48;1.08;;;24.20;99.90;;;;;;5011441;28;20053;-60
2022/06/06 04:42:19;;;;;;;1.83;0.90;;;24.20;99.90;;;;;;5011368;28;20030;-60
2022/06/06 04:44:54;;;;;;;4.13;1.02;;;24.10;99.90;;;;;;5011410;28;20414;-59
2022/06/06 04:47:37;;;;;;;3.78;1.30;;;24.10;99.90;;;;;;5006725;28;20014;-60
2022/06/06 04:50:10;;;;;;;4.32;1.40;;;24.10;99.90;;;;;;5005749;28;20022;-60
2022/06/06 04:52:39;;;;;;;1.95;0.80;;;24.10;99.90;;;;;;5011363;28;20057;-60
2022/06/06 04:55:07;;;;;;;3.67;1.38;;;24.10;99.90;;;;;;5011380;28;20064;-60
2022/06/06 04:57:36;;;;;;;1.92;0.98;;;24.10;99.90;;;;;;5011023;28;20018;-63
2022/06/06 05:00:03;;;;;;;3.63;1.25;;;24.00;99.90;;;;;;5011312;28;20615;-60
2022/06/06 05:02:30;;;;;;;3.67;1.20;;;24.00;99.90;;;;;;5014784;28;20026;-61
2022/06/06 05:04:56;;;;;;;4.47;1.13;;;24.00;99.90;;;;;;5014921;28;20037;-61
2022/06/06 05:07:34;;;;;;;3.83;1.33;;;24.00;99.90;;;;;;5015430;28;20018;-59
2022/06/06 05:10:59;;;;;;;2.13;1.17;;;23.90;99.90;;;;;;5014930;28;20022;-60
2022/06/06 05:13:54;;;;;;;6.82;1.77;;;24.00;99.90;;;;;;4935310;29;20485;-60
2022/06/06 05:16:29;;;;;;;7.93;4.13;;;24.00;99.90;;;;;;5004586;28;20412;-61
2022/06/06 05:19:18;;;;;;;7.30;2.10;;;23.90;99.90;;;;;;5015071;28;20029;-60
2022/06/06 05:22:10;;;;;;;5.65;2.22;;;23.80;99.90;;;;;;5007012;28;20126;-59
2022/06/06 05:24:48;;;;;;;7.70;3.10;;;23.80;99.90;;;;;;5009559;28;20030;-60
2022/06/06 05:27:51;;;;;;;9.73;3.53;;;23.80;99.90;;;;;;5014578;28;20025;-60
2022/06/06 05:30:41;;;;;;;11.70;5.00;;;23.80;99.90;;;;;;5003990;28;20033;-59
2022/06/06 05:33:17;;;;;;;11.10;6.25;;;23.70;99.90;;;;;;5014542;28;20026;-58
2022/06/06 05:36:26;;;;;;;9.68;3.42;;;23.70;99.90;;;;;;5014352;28;20026;-60
2022/06/06 05:39:13;;;;;;;6.15;2.60;;;23.60;99.90;;;;;;4998793;28;20573;-59
2022/06/06 05:42:01;;;;;;;6.50;3.10;;;23.50;99.90;;;;;;5014581;28;20374;-60
2022/06/06 05:44:44;;;;;;;8.65;3.67;;;23.40;99.90;;;;;;5009949;28;20046;-60
2022/06/06 05:47:16;;;;;;;8.70;2.90;;;23.30;99.90;;;;;;5002926;28;20026;-60
2022/06/06 05:50:14;;;;;;;8.35;3.72;;;23.40;99.90;;;;;;5014498;28;20412;-60
2022/06/06 05:53:37;;;;;;;8.68;3.15;;;23.30;99.90;;;;;;5014097;28;20374;-60
2022/06/06 05:56:11;;;;;;;5.80;2.60;;;23.30;99.90;;;;;;4941548;28;20482;-60
2022/06/06 05:58:56;;;;;;;7.32;3.15;;;23.30;99.90;;;;;;4953573;29;20062;-60
2022/06/06 06:01:47;;;;;;;6.60;2.67;;;23.20;99.90;;;;;;4992981;28;20041;-60
2022/06/06 06:04:44;;;;;;;6.85;2.63;;;23.30;99.90;;;;;;5013826;28;20135;-60
2022/06/06 06:07:54;;;;;;;6.10;2.78;;;23.30;99.90;;;;;;5014249;28;20061;-60
2022/06/06 06:10:30;;;;;;;7.60;2.95;;;23.30;99.90;;;;;;4990954;28;20030;-60
2022/06/06 06:13:05;;;;;;;8.43;2.58;;;23.40;99.90;;;;;;5012492;28;20108;-60
2022/06/06 06:15:38;;;;;;;8.25;2.40;;;23.40;99.90;;;;;;5014024;28;20064;-60
2022/06/06 06:18:17;;;;;;;6.82;2.67;;;23.40;99.90;;;;;;5013867;28;20022;-59
2022/06/06 06:20:57;;;;;;;5.97;2.35;;;23.40;99.90;;;;;;5013887;28;20092;-60
2022/06/06 06:23:27;;;;;;;8.18;2.78;;;23.40;99.90;;;;;;5012027;28;20105;-59
2022/06/06 06:25:54;;;;;;;9.57;3.10;;;23.40;99.90;;;;;;5013926;28;20536;-60
2022/06/06 06:28:20;;;;;;;5.18;2.00;;;23.40;99.90;;;;;;5013671;28;20030;-59
2022/06/06 06:30:58;;;;;;;9.30;3.08;;;23.50;99.90;;;;;;5013631;28;20041;-59
2022/06/06 06:33:42;;;;;;;5.78;2.38;;;23.40;99.90;;;;;;5013449;28;20105;-60
2022/06/06 06:36:28;;;;;;;7.93;2.65;;;23.50;99.90;;;;;;5013457;28;20033;-59
2022/06/06 06:38:54;;;;;;;7.75;2.30;;;23.40;99.90;;;;;;5013425;28;20038;-60
2022/06/06 06:41:29;;;;;;;7.53;2.72;;;23.50;99.90;;;;;;5013018;28;20049;-60
2022/06/06 06:44:11;;;;;;;10.30;2.80;;;23.50;99.90;;;;;;5013575;28;20026;-60
2022/06/06 06:46:58;;;;;;;8.52;2.83;;;23.60;99.90;;;;;;5013340;28;20149;-60
2022/06/06 06:49:40;;;;;;;7.35;3.00;;;23.60;99.90;;;;;;5013049;28;20030;-60
2022/06/06 06:52:43;;;;;;;8.38;3.35;;;23.60;99.90;;;;;;5013294;28;20026;-60
2022/06/06 06:55:36;;;;;;;8.02;2.70;;;23.60;99.90;;;;;;4998136;28;20072;-61
2022/06/06 06:58:20;;;;;;;7.70;3.08;;;23.60;99.90;;;;;;5013340;28;20040;-60
2022/06/06 07:00:56;;;;;;;7.80;2.72;;;23.70;99.90;;;;;;5012569;28;20081;-60
2022/06/06 07:09:51;;;;;;;5.20;2.20;;;23.80;99.90;;;;;;4996848;28;20029;-60
2022/06/06 07:12:51;;;;;;;5.72;2.50;;;23.90;99.90;;;;;;5012776;28;20037;-60
2022/06/06 07:15:36;;;;;;;7.55;2.92;;;24.00;99.90;;;;;;5012721;28;20022;-60
2022/06/06 07:18:05;;;;;;;9.90;2.38;;;24.00;99.90;;;;;;5013020;28;20029;-60
2022/06/06 07:20:32;;;;;;;7.22;2.00;;;24.00;99.90;;;;;;5012499;28;20490;-60
2022/06/06 07:23:11;;;;;;;6.63;2.85;;;24.10;99.90;;;;;;5012905;28;20026;-60
2022/06/06 07:25:38;;;;;;;6.30;2.30;;;24.10;99.90;;;;;;5011053;28;20092;-61
2022/06/06 07:28:11;;;;;;;5.43;2.00;;;24.20;99.90;;;;;;5012982;28;20046;-60
2022/06/06 07:30:57;;;;;;;9.90;3.17;;;24.20;99.90;;;;;;4994185;28;20072;-60
2022/06/06 07:33:53;;;;;;;6.97;2.25;;;24.30;99.90;;;;;;4975957;28;20057;-60
2022/06/06 07:36:45;;;;;;;7.15;2.25;;;24.40;99.90;;;;;;5012156;28;20025;-60
2022/06/06 07:39:38;;;;;;;7.93;3.00;;;24.40;99.90;;;;;;5011846;28;20129;-60
2022/06/06 07:42:41;;;;;;;5.82;2.28;;;24.50;99.90;;;;;;5002697;28;20474;-60
2022/06/06 07:45:12;;;;;;;7.15;2.30;;;24.50;99.90;;;;;;5012220;28;20022;-60
2022/06/06 07:47:59;;;;;;;6.70;3.05;;;24.50;99.90;;;;;;5012160;28;20041;-60
2022/06/06 07:50:36;;;;;;;8.70;2.88;;;24.50;99.90;;;;;;5011947;28;20052;-60
2022/06/06 07:53:26;;;;;;;6.43;2.40;;;24.60;99.90;;;;;;5012183;28;20026;-60
2022/06/06 07:56:04;;;;;;;4.85;2.28;;;24.60;99.90;;;;;;5001101;28;20386;-60
2022/06/06 07:59:01;;;;;;;7.50;2.40;;;24.70;99.90;;;;;;5007764;28;20473;-60
2022/06/06 08:02:00;;;;;;;9.63;2.42;;;24.60;99.90;;;;;;5011836;28;20144;-60
2022/06/06 08:04:47;;;;;;;7.00;2.38;;;24.70;99.90;;;;;;5011824;28;20493;-60
2022/06/06 08:07:28;;;;;;;;;;;24.60;99.90;;;;;;5012208;28;20359;-61
2022/06/06 08:10:17;;;;;;;6.10;1.77;;;24.60;99.90;;;;;;5011708;28;20273;-60
2022/06/06 08:13:01;;;;;;;7.72;2.47;;;24.70;99.90;;;;;;5011832;28;20077;-60
2022/06/06 08:15:58;;;;;;;6.43;2.15;;;24.70;99.90;;;;;;5011610;28;20040;-60
2022/06/06 08:18:58;;;;;;;8.98;2.03;;;24.70;99.90;;;;;;5011377;28;20470;-60
2022/06/06 08:21:39;;;;;;;8.65;2.85;;;24.80;99.90;;;;;;4997764;28;20022;-60
2022/06/06 08:24:09;;;;;;;7.72;3.15;;;24.80;99.90;;;;;;5011749;28;20104;-60
2022/06/06 08:26:38;;;;;;;11.55;2.75;;;24.80;99.90;;;;;;5011608;28;20018;-61
2022/06/06 08:29:07;;;;;;;12.48;5.45;;;24.80;99.90;;;;;;5011405;28;20040;-60
2022/06/06 08:31:33;;;;;;;10.95;2.70;;;24.90;99.90;;;;;;5011380;28;20030;-60
2022/06/06 08:33:59;;;;;;;9.43;3.65;;;24.80;99.90;;;;;;5011348;28;20034;-60
2022/06/06 08:36:57;;;;;;;11.52;2.45;;;24.90;99.90;;;;;;5010422;28;20022;-60
2022/06/06 08:40:04;;;;;;;5.50;2.10;;;24.90;99.90;;;;;;5010842;28;20490;-60
2022/06/06 08:42:54;;;;;;;7.07;2.58;;;25.00;99.90;;;;;;5002811;28;20474;-60
2022/06/06 08:45:40;;;;;;;9.48;2.60;;;25.00;99.90;;;;;;5011367;28;20026;-61
2022/06/06 08:48:26;;;;;;;7.63;2.10;;;25.00;99.90;;;;;;5000886;28;20516;-60
2022/06/06 08:51:40;;;;;;;10.77;2.65;;;25.00;99.90;;;;;;5011197;28;20030;-61
2022/06/06 08:54:30;;;;;;;3.90;1.85;;;25.00;99.90;;;;;;4980464;28;20030;-60
2022/06/06 08:57:08;;;;;;;4.10;1.92;;;25.00;99.90;;;;;;5010749;28;20386;-60
2022/06/06 09:00:09;;;;;;;6.13;2.03;;;25.00;99.90;;;;;;4998450;28;20033;-59
2022/06/06 09:02:54;;;;;;;6.10;2.03;;;25.00;99.90;;;;;;4960603;28;20042;-60
2022/06/06 09:05:47;;;;;;;6.07;2.00;;;25.00;99.90;;;;;;5010699;28;20037;-60
2022/06/06 09:08:21;;;;;;;7.63;2.20;;;25.00;99.90;;;;;;5010136;28;20030;-59
2022/06/06 09:11:06;;;;;;;12.45;3.67;;;25.10;99.90;;;;;;5010923;28;20525;-60
2022/06/06 09:13:59;;;;;;;9.48;2.50;;;25.10;99.90;;;;;;5010784;28;20026;-60
2022/06/06 09:17:08;;;;;;;8.05;2.65;;;25.10;99.90;;;;;;5010831;28;20034;-60
2022/06/06 09:20:01;;;;;;;10.48;2.45;;;25.10;99.90;;;;;;5001384;28;20184;-59
2022/06/06 09:22:45;;;;;;;6.00;2.08;;;25.10;99.90;;;;;;5010818;28;20050;-59
2022/06/06 09:25:22;;;;;;;4.63;2.78;;;25.10;99.90;;;;;;5011015;28;20026;-59
2022/06/06 09:28:06;;;;;;;9.45;2.55;;;25.10;99.90;;;;;;5010612;28;20037;-60
2022/06/06 09:30:46;;;;;;;11.23;3.10;;;25.20;99.90;;;;;;5010619;28;20386;-60
2022/06/06 09:33:29;;;;;;;6.20;2.80;;;25.20;99.90;;;;;;5011121;28;20037;-59
2022/06/06 09:36:01;;;;;;;8.38;2.30;;;25.20;99.90;;;;;;5009517;28;20037;-59
2022/06/06 09:38:55;;;;;;;6.40;2.15;;;25.30;99.90;;;;;;4999414;28;20041;-59
2022/06/06 09:41:54;;;;;;;11.07;2.25;;;25.20;99.90;;;;;;5010522;28;20036;-58
2022/06/06 09:44:48;;;;;;;7.22;2.92;;;25.20;99.90;;;;;;5010747;28;20022;-59
2022/06/06 09:47:19;;;;;;;9.43;2.65;;;25.30;99.90;;;;;;5011934;28;20381;-60
2022/06/06 09:50:06;;;;;;;10.15;3.05;;;25.30;99.90;;;;;;5014434;28;20088;-61
2022/06/06 09:53:07;;;;;;;10.52;3.30;;;25.20;99.90;;;;;;5014454;28;20414;-60
2022/06/06 10:01:51;;;;;;;13.40;3.33;;;25.20;99.90;;;;;;5014358;28;20045;-61
2022/06/06 10:04:33;;;;;;;8.52;3.05;;;25.20;99.90;;;;;;5013972;28;20032;-58
2022/06/06 10:07:27;;;;;;;16.67;4.53;;;25.20;99.90;;;;;;5003914;28;20022;-59
2022/06/06 10:10:17;;;;;;;10.75;3.90;;;25.20;99.90;;;;;;5013772;28;20030;-58
2022/06/06 10:12:59;;;;;;;9.68;3.00;;;25.20;99.90;;;;;;5014147;28;20029;-58
2022/06/06 10:15:45;;;;;;;12.15;3.25;;;25.20;99.90;;;;;;5013558;28;20022;-60
2022/06/06 10:18:29;;;;;;;10.27;2.47;;;25.10;99.90;;;;;;5013888;28;20109;-59
2022/06/06 10:21:19;;;;;;;10.07;2.70;;;25.10;99.90;;;;;;5013834;28;20481;-60
2022/06/06 10:24:15;;;;;;;8.52;2.70;;;25.10;99.90;;;;;;5014196;28;20054;-59
2022/06/06 10:26:57;;;;;;;10.52;3.47;;;25.20;99.90;;;;;;5013889;28;20038;-59
2022/06/06 10:30:12;;;;;;;7.95;3.05;;;25.20;99.90;;;;;;5013501;28;20378;-59
2022/06/06 10:33:05;;;;;;;7.22;2.80;;;25.30;99.90;;;;;;5013480;28;20030;-59
2022/06/06 10:35:48;;;;;;;9.25;2.83;;;25.30;99.90;;;;;;5013446;28;20026;-59
2022/06/06 10:38:13;;;;;;;7.40;2.42;;;25.30;99.90;;;;;;5000385;28;20021;-57
2022/06/06 10:41:16;;;;;;;10.15;2.40;;;25.30;99.90;;;;;;5013365;28;20029;-59
2022/06/06 10:43:53;;;;;;;7.65;2.30;;;25.30;99.90;;;;;;5013686;28;20080;-58
2022/06/06 10:46:25;;;;;;;7.20;2.40;;;25.30;99.90;;;;;;5012984;28;20026;-60
2022/06/06 10:49:06;;;;;;;5.80;1.80;;;25.30;99.90;;;;;;5012996;28;20544;-60
2022/06/06 10:52:00;;;;;;;8.07;2.58;;;25.40;99.90;;;;;;5013181;28;20032;-60
2022/06/06 10:54:44;;;;;;;10.82;2.67;;;25.40;99.90;;;;;;5011060;28;20050;-60
2022/06/06 10:57:27;;;;;;;8.80;3.58;;;25.50;99.90;;;;;;5012895;28;20049;-58
2022/06/06 11:00:23;;;;;;;9.15;2.30;;;25.60;99.90;;;;;;5012129;28;20061;-59
2022/06/06 11:02:58;;;;;;;6.72;2.20;;;25.60;99.90;;;;;;5012824;28;20024;-59
2022/06/06 11:05:51;;;;;;;6.93;2.30;;;25.70;99.90;;;;;;5005191;28;20034;-59
2022/06/06 11:08:39;;;;;;;9.40;2.38;;;25.70;99.90;;;;;;5012935;28;20021;-59
2022/06/06 11:11:22;;;;;;;4.80;2.42;;;25.80;99.90;;;;;;5012796;28;20429;-59
2022/06/06 11:13:56;;;;;;;5.55;2.33;;;25.80;99.90;;;;;;5012908;28;20440;-59
2022/06/06 11:16:50;;;;;;;8.00;1.80;;;25.90;99.90;;;;;;5012634;28;20028;-58
2022/06/06 11:19:31;;;;;;;9.15;2.70;;;25.90;99.90;;;;;;5012810;28;20057;-59
2022/06/06 11:22:02;;;;;;;9.43;2.95;;;26.00;99.90;;;;;;5012380;28;20113;-59
2022/06/06 11:24:47;;;;;;;8.43;3.22;;;26.10;99.90;;;;;;5012393;28;20018;-59
2022/06/06 11:27:38;;;;;;;7.53;2.40;;;26.10;99.90;;;;;;5011274;28;20041;-59
2022/06/06 11:30:39;;;;;;;7.28;2.10;;;26.10;99.90;;;;;;5012428;28;20026;-59
2022/06/06 11:33:29;;;;;;;8.20;2.63;;;26.10;99.90;;;;;;5012401;28;20025;-60
2022/06/06 11:36:09;;;;;;;7.63;2.88;;;26.10;99.90;;;;;;5012613;28;20382;-60
2022/06/06 11:38:51;;;;;;;8.32;2.55;;;26.10;99.90;;;;;;5012446;28;20037;-59
2022/06/06 11:42:00;;;;;;;8.85;3.60;;;26.20;99.90;;;;;;5012377;28;20436;-59
2022/06/06 11:44:56;;;;;;;8.88;2.03;;;26.30;99.90;;;;;;4989099;28;20057;-59
2022/06/06 11:47:40;;;;;;;5.20;2.30;;;26.30;99.90;;;;;;5012194;28;20018;-60
2022/06/06 11:50:18;;;;;;;7.72;2.45;;;26.30;99.90;;;;;;5011842;28;20030;-59
2022/06/06 11:53:21;;;;;;;5.07;1.95;;;26.30;99.90;;;;;;5012474;28;20026;-60
2022/06/06 11:56:10;;;;;;;9.80;3.38;;;26.30;99.90;;;;;;5011237;28;20032;-60
2022/06/06 11:58:42;;;;;;;6.45;2.10;;;26.30;99.90;;;;;;5011935;28;20497;-60
2022/06/06 12:01:32;;;;;;;6.80;3.20;;;26.30;99.90;;;;;;5011793;28;20537;-59
2022/06/06 12:04:21;;;;;;;7.43;3.33;;;26.20;99.90;;;;;;5009100;28;20027;-59
2022/06/06 12:07:15;;;;;;;7.35;3.83;;;26.10;99.90;;;;;;5008296;28;20040;-60
2022/06/06 12:10:13;;;;;;;9.13;3.08;;;26.00;99.90;;;;;;4991821;28;20149;-60
2022/06/06 12:12:57;;;;;;;11.27;5.32;;;25.80;99.90;;;;;;4963054;28;20031;-61
2022/06/06 12:15:54;;;;;;;7.53;4.00;;;25.70;99.90;;;;;;5010927;28;20022;-61
2022/06/06 12:18:48;;;;;;;9.32;4.55;;;25.60;99.90;;;;;;4981835;28;20107;-60
2022/06/06 12:21:22;;;;;;;7.82;2.67;;;25.60;99.90;;;;;;4998605;28;20037;-59
2022/06/06 12:24:08;;;;;;;9.82;4.82;;;25.60;99.90;;;;;;5011916;28;20026;-61
2022/06/06 12:26:58;;;;;;;11.55;4.78;;;25.60;99.90;;;;;;5011755;28;20026;-60
2022/06/06 12:29:42;;;;;;;14.65;4.95;;;25.60;99.90;;;;;;5011223;28;20034;-58
2022/06/06 12:32:27;;;;;;;7.70;3.63;;;25.60;99.90;;;;;;4999703;28;20045;-57
2022/06/06 12:35:13;;;;;;;6.70;3.40;;;25.70;99.90;;;;;;4997108;28;20481;-57
2022/06/06 12:38:06;;;;;;;7.05;2.83;;;25.70;99.90;;;;;;4991254;28;20379;-61
2022/06/06 12:40:47;;;;;;;10.18;4.00;;;25.80;99.90;;;;;;4999198;28;20064;-60
2022/06/06 12:43:25;;;;;;;11.27;3.42;;;25.80;99.90;;;;;;4997712;28;20025;-61
2022/06/06 12:46:25;;;;;;;7.28;3.13;;;25.90;99.90;;;;;;5011055;28;20018;-60
2022/06/06 12:48:56;;;;;;;10.55;3.15;;;25.90;99.90;;;;;;4997428;28;20037;-61
2022/06/06 12:51:31;;;;;;;6.70;2.53;;;26.00;99.90;;;;;;4997234;28;20474;-61
2022/06/06 12:54:19;;;;;;;4.72;1.98;;;26.10;99.90;;;;;;5010925;28;20385;-59
2022/06/06 12:57:00;;;;;;;5.47;1.92;;;26.20;99.90;;;;;;5009288;28;20028;-60
2022/06/06 12:59:38;;;;;;;5.38;1.55;;;26.30;99.90;;;;;;5007630;28;20504;-58
2022/06/06 13:02:10;;;;;;;4.68;1.92;;;26.50;99.90;;;;;;5002121;28;20031;-58
2022/06/06 13:04:42;;;;;;;4.90;1.95;;;26.60;99.90;;;;;;5007492;28;20092;-58
2022/06/06 13:07:26;;;;;;;5.68;1.73;;;26.80;99.90;;;;;;4997690;28;20030;-59
2022/06/06 13:10:17;;;;;;;7.57;3.17;;;27.00;99.90;;;;;;5009328;28;20030;-58
2022/06/06 13:13:01;;;;;;;8.90;3.13;;;27.20;99.90;;;;;;5004137;28;20097;-58
2022/06/06 13:15:31;;;;;;;5.18;2.20;;;27.30;99.90;;;;;;4998420;28;20056;-56
2022/06/06 13:18:11;;;;;;;7.28;2.20;;;27.30;99.90;;;;;;4995084;28;20023;-56
2022/06/06 13:20:43;;;;;;;5.10;2.35;;;27.40;99.90;;;;;;4994718;28;20139;-56
2022/06/06 13:23:37;;;;;;;11.63;6.03;;;27.40;99.90;;;;;;5005233;28;20049;-57
2022/06/06 13:26:27;;;;;;;5.25;2.40;;;27.50;99.90;;;;;;5008508;28;20026;-56
2022/06/06 13:28:55;;;;;;;9.70;3.00;;;27.50;99.90;;;;;;5005603;28;20033;-58
2022/06/06 13:31:33;;;;;;;12.18;2.40;;;27.40;99.90;;;;;;4997765;28;20018;-57
2022/06/06 13:34:18;;;;;;;6.95;2.45;;;27.30;99.90;;;;;;4996629;28;20057;-58
2022/06/06 13:37:11;;;;;;;5.75;2.47;;;27.20;99.90;;;;;;4994837;28;20026;-54
2022/06/06 13:40:02;;;;;;;5.70;2.35;;;27.00;99.90;;;;;;4993936;28;20065;-59
2022/06/06 13:43:05;;;;;;;13.10;3.90;;;27.00;99.90;;;;;;4997219;28;20089;-57
2022/06/06 13:45:52;;;;;;;12.82;3.47;;;26.90;99.90;;;;;;4994803;28;20014;-56
2022/06/06 13:48:33;;;;;;;6.75;2.03;;;26.90;99.90;;;;;;4998648;28;20057;-57
2022/06/06 13:51:17;;;;;;;12.65;2.13;;;26.90;99.90;;;;;;5007888;28;20015;-59
2022/06/06 13:54:02;;;;;;;9.55;2.10;;;26.80;99.90;;;;;;5007348;28;20037;-57
2022/06/06 13:56:39;;;;;;;5.70;2.00;;;26.70;99.90;;;;;;4996918;28;20022;-56
2022/06/06 13:59:42;;;;;;;6.45;2.53;;;26.70;99.90;;;;;;4994976;28;20030;-57
2022/06/06 14:02:55;;;;;;;13.25;2.75;;;26.60;99.90;;;;;;5008014;28;20401;-58
2022/06/06 14:05:46;;;;;;;6.40;3.03;;;26.50;99.90;;;;;;4984671;28;20076;-61
2022/06/06 14:08:15;;;;;;;8.35;3.42;;;26.50;99.90;;;;;;4994297;28;20042;-60
2022/06/06 14:10:53;;;;;;;6.00;2.00;;;26.50;99.90;;;;;;5001728;28;20058;-61
2022/06/06 14:13:28;;;;;;;6.72;2.47;;;26.30;99.90;;;;;;5010348;28;20490;-60
2022/06/06 14:15:56;;;;;;;11.75;3.33;;;26.30;99.90;;;;;;5012183;28;20133;-59
2022/06/06 14:18:30;;;;;;;7.32;2.22;;;26.40;99.90;;;;;;5005721;28;20044;-60
2022/06/06 14:20:57;;;;;;;8.43;2.95;;;26.40;99.90;;;;;;5000251;28;20122;-60